createdAt,value
2022-11-21T00:06:50.259Z,2
2022-11-21T00:16:57.560Z,5
2022-11-21T00:27:02.578Z,6
2022-11-21T00:37:10.119Z,4
2022-11-21T00:47:17.328Z,4
2022-11-21T00:57:23.061Z,5
2022-11-21T01:07:28.657Z,2
2022-11-21T01:17:35.654Z,3
2022-11-21T01:27:41.490Z,2
2022-11-21T01:37:47.425Z,3
2022-11-21T01:47:51.988Z,2
2022-11-21T01:57:58.232Z,2
2022-11-21T02:08:04.183Z,4
2022-11-21T02:18:10.086Z,3
2022-11-21T02:28:16.511Z,3
2022-11-21T02:38:22.308Z,3
2022-11-21T02:48:34.253Z,4
2022-11-21T02:58:40.446Z,2
2022-11-21T03:08:40.042Z,3
2022-11-21T03:18:44.893Z,3
2022-11-21T03:28:51.237Z,1
2022-11-21T03:38:57.622Z,3
2022-11-21T03:49:03.041Z,2
2022-11-21T03:59:09.274Z,3
2022-11-21T04:09:13.295Z,2
2022-11-21T04:19:19.860Z,3
2022-11-21T04:29:24.867Z,3
2022-11-21T04:39:30.818Z,2
2022-11-21T04:49:37.544Z,2
2022-11-21T04:59:43.601Z,2
2022-11-21T05:09:51.351Z,2
2022-11-21T05:19:57.254Z,2
2022-11-21T05:30:09.326Z,2
2022-11-21T05:40:09.418Z,2
2022-11-21T05:50:16.956Z,2
2022-11-21T06:00:24.260Z,2
2022-11-21T06:10:28.985Z,2
2022-11-21T06:20:35.759Z,3
2022-11-21T06:30:42.359Z,3
2022-11-21T06:40:47.662Z,3
2022-11-21T06:50:52.338Z,4
2022-11-21T07:00:58.849Z,3
2022-11-21T07:11:23.972Z,4
2022-11-21T07:21:18.497Z,4
2022-11-21T07:31:24.050Z,3
2022-11-21T07:41:29.588Z,5
2022-11-21T07:51:35.642Z,5
2022-11-21T08:01:45.154Z,5
2022-11-21T08:11:47.120Z,3
2022-11-21T08:22:01.427Z,6
2022-11-21T08:31:58.290Z,9
2022-11-21T08:42:05.521Z,7
2022-11-21T08:52:11.257Z,4
2022-11-21T09:02:16.605Z,3
2022-11-21T09:12:22.323Z,3
2022-11-21T09:22:29.028Z,4
2022-11-21T09:32:34.444Z,3
2022-11-21T09:42:40.610Z,3
2022-11-21T09:52:47.090Z,4
2022-11-21T10:02:52.931Z,3
2022-11-21T10:12:55.688Z,3
2022-11-21T10:23:03.247Z,2
2022-11-21T10:33:08.994Z,6
2022-11-21T10:43:16.332Z,4
2022-11-21T10:53:21.817Z,2
2022-11-21T11:03:28.862Z,3
2022-11-21T11:14:22.909Z,3
2022-11-21T11:24:15.729Z,3
2022-11-21T11:34:20.242Z,2
2022-11-21T11:44:25.657Z,3
2022-11-21T11:54:36.742Z,3
2022-11-21T12:04:39.990Z,4
2022-11-21T12:15:45.131Z,3
2022-11-21T12:25:51.667Z,4
2022-11-21T12:36:04.799Z,17
2022-11-21T12:46:12.760Z,5
2022-11-21T12:56:22.299Z,3
2022-11-21T13:06:24.042Z,3
2022-11-21T13:16:28.909Z,10
2022-11-21T13:26:34.626Z,9
2022-11-21T13:36:40.766Z,2
2022-11-21T13:46:47.027Z,2
2022-11-21T13:56:53.213Z,6
2022-11-21T14:07:08.696Z,1
2022-11-21T14:17:07.496Z,5
2022-11-21T14:27:12.694Z,5
2022-11-21T14:47:26.988Z,8
2022-11-21T14:57:45.729Z,5
2022-11-21T15:08:24.126Z,5
2022-11-21T15:14:58.647Z,6
2022-11-21T15:24:50.940Z,5
2022-11-21T15:35:27.711Z,13
2022-11-21T15:45:26.111Z,13
2022-11-21T15:55:31.317Z,8
2022-11-21T16:05:39.048Z,10
2022-11-21T16:15:43.730Z,11
2022-11-21T16:25:49.664Z,10
2022-11-21T16:35:53.661Z,8
2022-11-21T16:45:58.762Z,14
2022-11-21T16:56:04.533Z,12
2022-11-21T17:06:10.889Z,12
2022-11-21T17:16:17.412Z,12
2022-11-21T17:26:24.937Z,8
2022-11-21T17:36:29.687Z,8
2022-11-21T17:46:43.679Z,11
2022-11-21T17:56:45.828Z,11
2022-11-21T18:06:47.316Z,10
2022-11-21T18:16:53.823Z,12
2022-11-21T18:26:58.761Z,20
2022-11-21T18:37:05.356Z,17
2022-11-21T18:47:20.301Z,9
2022-11-21T18:57:19.406Z,7
2022-11-21T19:07:24.450Z,6
2022-11-21T19:17:30.103Z,6
2022-11-21T19:27:38.244Z,6
2022-11-21T19:37:43.216Z,10
2022-11-21T19:47:50.176Z,4
2022-11-21T19:58:00.834Z,6
2022-11-21T20:08:04.975Z,5
2022-11-21T20:18:09.794Z,4
2022-11-21T20:28:16.068Z,4
2022-11-21T20:38:24.422Z,5
2022-11-21T20:50:31.595Z,4
2022-11-21T21:03:00.262Z,4
2022-11-21T21:13:05.253Z,5
2022-11-21T21:23:11.035Z,3
2022-11-21T21:33:17.566Z,4
2022-11-21T21:43:22.737Z,5
2022-11-21T21:53:27.487Z,3
2022-11-21T22:03:32.686Z,7
2022-11-21T22:13:37.792Z,5
2022-11-21T22:24:09.664Z,3
2022-11-21T22:34:17.663Z,4
2022-11-21T22:44:23.356Z,4
2022-11-21T22:54:29.034Z,4
2022-11-21T23:04:34.838Z,3
2022-11-21T23:14:39.082Z,3
2022-11-21T23:24:44.900Z,4
2022-11-21T23:34:51.315Z,5
2022-11-21T23:44:55.481Z,4
2022-11-21T23:55:02.340Z,3
